Time;durP1;ratioP1;P1;durP2;ratioP2;P2;SDS_P1;SDS_P2;PMS_P1;PMS_P2;Temp;Humidity;BMP_temperature;BMP_pressure;BME280_temperature;BME280_humidity;BME280_pressure;Samples;Min_cycle;Max_cycle;Signal;HPM_P1;HPM_P2
2023/04/07 00:02:02;;;;;;;27.90;19.42;;;;;;;7.68;100.00;100698.72;5047949;28;20112;-78
2023/04/07 00:04:29;;;;;;;26.35;19.80;;;;;;;7.63;100.00;100699.94;5055965;28;20080;-77
2023/04/07 00:06:56;;;;;;;29.70;19.63;;;;;;;7.61;100.00;100693.22;5056125;28;20072;-78
2023/04/07 00:09:23;;;;;;;29.23;18.77;;;;;;;7.60;100.00;100699.41;5055264;28;20053;-77
2023/04/07 00:11:50;;;;;;;26.40;19.08;;;;;;;7.57;100.00;100697.88;5056614;28;20049;-78
2023/04/07 00:14:17;;;;;;;27.92;20.42;;;;;;;7.62;100.00;100706.13;5056656;28;20049;-78
2023/04/07 00:16:43;;;;;;;26.27;19.17;;;;;;;7.69;100.00;100702.97;5056751;28;20467;-77
2023/04/07 00:19:11;;;;;;;25.50;18.27;;;;;;;7.64;100.00;100709.41;5056589;28;20135;-78
2023/04/07 00:21:38;;;;;;;27.55;19.42;;;;;;;7.66;100.00;100710.09;5058402;28;20440;-77
2023/04/07 00:24:05;;;;;;;26.38;18.90;;;;;;;7.63;100.00;100707.75;5057739;28;20386;-79
2023/04/07 00:26:31;;;;;;;25.17;18.98;;;;;;;7.58;100.00;100709.94;5058477;28;20096;-78
2023/04/07 00:28:58;;;;;;;27.73;19.27;;;;;;;7.61;100.00;100703.66;5059914;28;20068;-79
2023/04/07 00:31:25;;;;;;;27.00;19.88;;;;;;;7.69;100.00;100713.41;5060782;28;20080;-78
2023/04/07 00:33:52;;;;;;;25.50;19.60;;;;;;;7.71;100.00;100703.66;5059656;28;20076;-77
2023/04/07 00:36:19;;;;;;;27.85;18.27;;;;;;;7.64;100.00;100700.78;5055999;28;20085;-78
2023/04/07 00:38:46;;;;;;;30.55;20.55;;;;;;;7.63;100.00;100697.34;5065557;28;20061;-79
2023/04/07 00:41:13;;;;;;;30.88;20.48;;;;;;;7.63;100.00;100699.13;5065656;28;20084;-80
2023/04/07 00:43:40;;;;;;;25.73;19.25;;;;;;;7.66;100.00;100702.28;5065017;28;20060;-79
2023/04/07 00:46:07;;;;;;;27.27;19.25;;;;;;;7.68;100.00;100698.72;5059400;28;20048;-79
2023/04/07 00:48:34;;;;;;;27.52;20.33;;;;;;;7.66;100.00;100697.09;5058860;28;20048;-79
2023/04/07 00:51:00;;;;;;;29.05;20.63;;;;;;;7.66;100.00;100698.88;5056283;28;20122;-78
2023/04/07 00:53:29;;;;;;;27.55;19.58;;;;;;;7.68;100.00;100698.72;5056707;28;20057;-78
2023/04/07 00:55:55;;;;;;;26.85;19.80;;;;;;;7.69;100.00;100702.97;5053823;28;20084;-79
2023/04/07 00:58:22;;;;;;;28.20;19.67;;;;;;;7.68;100.00;100698.72;5055216;28;20061;-79
2023/04/07 01:00:51;;;;;;;25.35;18.85;;;;;;;7.68;100.00;100694.34;5050832;28;20080;-80
2023/04/07 01:03:25;;;;;;;27.40;20.02;;;;;;;7.74;100.00;100696.41;5056287;28;20079;-79
2023/04/07 01:05:55;;;;;;;26.40;19.08;;;;;;;7.75;100.00;100690.25;5057494;28;20076;-80
2023/04/07 01:08:28;;;;;;;28.95;21.17;;;;;;;7.75;100.00;100684.19;5065360;28;20061;-79
2023/04/07 01:10:58;;;;;;;;;;;;;;;7.80;100.00;100682.00;5065340;28;20052;-78
2023/04/07 01:13:30;;;;;;;31.23;20.67;;;;;;;7.90;100.00;100685.44;5064515;28;19964;-77
2023/04/07 01:16:00;;;;;;;29.05;21.00;;;;;;;8.01;100.00;100679.28;5065699;28;20109;-79
2023/04/07 01:18:31;;;;;;;31.25;22.27;;;;;;;8.06;100.00;100677.06;5064062;28;20083;-79
2023/04/07 01:21:03;;;;;;;32.92;23.50;;;;;;;8.08;100.00;100691.59;5064370;28;20045;-80
2023/04/07 01:23:49;;;;;;;32.10;22.57;;;;;;;8.13;100.00;100692.00;5064449;28;20051;-80
2023/04/07 01:26:24;;;;;;;36.60;24.63;;;;;;;8.12;100.00;100692.97;5063535;28;20295;-79
2023/04/07 01:29:07;;;;;;;40.22;24.98;;;;;;;8.22;100.00;100688.56;5064717;28;20087;-79
2023/04/07 01:31:39;;;;;;;42.10;26.63;;;;;;;8.25;100.00;100690.91;5064137;28;20076;-78
2023/04/07 01:34:09;;;;;;;41.40;25.98;;;;;;;8.27;100.00;100681.16;5061266;28;20112;-78
2023/04/07 01:36:36;;;;;;;45.83;27.73;;;;;;;8.30;100.00;100688.69;5064020;28;20177;-79
2023/04/07 01:39:03;;;;;;;45.97;29.02;;;;;;;8.31;100.00;100692.94;5063109;28;20095;-79
2023/04/07 01:41:31;;;;;;;45.28;28.33;;;;;;;8.31;100.00;100692.94;5061129;28;20105;-79
2023/04/07 01:43:59;;;;;;;44.55;28.33;;;;;;;8.34;100.00;100686.66;5059651;28;20075;-78
2023/04/07 01:46:26;;;;;;;46.20;28.60;;;;;;;8.38;100.00;100693.25;5055345;28;20123;-78
2023/04/07 01:48:55;;;;;;;45.78;29.80;;;;;;;8.37;100.00;100696.00;5053257;28;20060;-77
2023/04/07 01:51:25;;;;;;;47.63;29.45;;;;;;;8.30;100.00;100696.53;5053218;28;20109;-77
2023/04/07 01:53:52;;;;;;;49.72;31.10;;;;;;;8.32;100.00;100684.19;5053020;28;20049;-77
2023/04/07 01:56:19;;;;;;;47.75;29.83;;;;;;;8.31;100.00;100682.53;5052144;28;20139;-77
2023/04/07 01:58:46;;;;;;;50.47;31.20;;;;;;;8.32;100.00;100689.41;5046720;28;20055;-77
2023/04/07 02:01:13;;;;;;;51.20;29.98;;;;;;;8.38;100.00;100692.44;5058392;28;20053;-78
2023/04/07 02:03:44;;;;;;;53.42;30.23;;;;;;;8.36;100.00;100689.13;5056947;28;20095;-78
2023/04/07 02:06:18;;;;;;;51.40;32.00;;;;;;;8.34;100.00;100685.84;5056534;28;20405;-79
2023/04/07 02:08:50;;;;;;;56.10;31.48;;;;;;;8.30;100.00;100678.28;5056109;28;20127;-79
2023/04/07 02:11:20;;;;;;;52.55;31.35;;;;;;;8.38;100.00;100693.25;5057120;28;20080;-77
2023/04/07 02:13:47;;;;;;;55.92;32.03;;;;;;;8.36;100.00;100689.13;5055873;28;20481;-76
2023/04/07 02:16:16;;;;;;;53.58;32.60;;;;;;;8.35;100.00;100687.50;5053331;28;20076;-77
2023/04/07 02:18:45;;;;;;;59.58;33.47;;;;;;;8.32;100.00;100694.63;5057156;28;20102;-78
2023/04/07 02:21:15;;;;;;;53.33;31.90;;;;;;;8.30;100.00;100693.91;5059366;28;20068;-78
2023/04/07 02:23:41;;;;;;;54.17;31.70;;;;;;;8.30;100.00;100683.50;5056861;28;20047;-78
2023/04/07 02:26:08;;;;;;;56.28;32.60;;;;;;;8.28;100.00;100695.84;5054673;28;20424;-79
2023/04/07 02:28:35;;;;;;;58.03;32.70;;;;;;;8.25;100.00;100690.06;5051557;28;20045;-79
2023/04/07 02:31:01;;;;;;;58.60;33.17;;;;;;;8.35;100.00;100692.72;5057188;28;20049;-79
2023/04/07 02:33:28;;;;;;;55.30;31.33;;;;;;;8.33;100.00;100690.25;5053820;28;20152;-79
2023/04/07 02:35:54;;;;;;;58.28;32.45;;;;;;;8.23;100.00;100690.22;5061929;28;20104;-78
2023/04/07 02:38:22;;;;;;;56.75;32.97;;;;;;;8.24;100.00;100696.25;5064973;28;20041;-79
2023/04/07 02:40:49;;;;;;;59.05;33.28;;;;;;;8.23;100.00;100702.44;5064331;28;20495;-79
2023/04/07 02:43:16;;;;;;;56.47;31.58;;;;;;;8.26;100.00;100694.34;5056063;28;20069;-78
2023/04/07 02:45:43;;;;;;;57.25;33.33;;;;;;;8.27;100.00;100695.97;5062322;28;20060;-80
2023/04/07 02:48:10;;;;;;;56.92;32.63;;;;;;;8.26;100.00;100702.97;5060598;28;20080;-79
2023/04/07 02:50:36;;;;;;;56.80;32.78;;;;;;;8.26;100.00;100699.53;5064122;28;20041;-80
2023/04/07 02:53:03;;;;;;;59.22;33.85;;;;;;;8.27;100.00;100693.38;5060048;28;20116;-79
2023/04/07 02:55:31;;;;;;;61.42;34.22;;;;;;;8.25;100.00;100703.13;5061813;28;20080;-77
2023/04/07 02:57:57;;;;;;;64.75;34.35;;;;;;;8.19;100.00;100704.50;5064199;28;20421;-79
2023/04/07 03:00:25;;;;;;;61.30;33.67;;;;;;;8.22;100.00;100703.38;5064982;28;20049;-80
2023/04/07 03:02:52;;;;;;;64.15;33.00;;;;;;;8.22;100.00;100706.00;5066376;28;20049;-77
2023/04/07 03:05:18;;;;;;;64.38;33.88;;;;;;;8.20;100.00;100702.72;5066175;28;20076;-79
2023/04/07 03:07:45;;;;;;;62.17;33.85;;;;;;;8.20;100.00;100711.34;5065859;28;20076;-79
2023/04/07 03:10:12;;;;;;;60.60;33.65;;;;;;;8.27;100.00;100709.84;5064888;28;20239;-79
2023/04/07 03:12:40;;;;;;;60.92;31.75;;;;;;;8.21;100.00;100712.16;5065723;28;20071;-79
2023/04/07 03:15:07;;;;;;;59.28;32.40;;;;;;;8.26;100.00;100717.78;5064773;28;20052;-80
2023/04/07 03:17:34;;;;;;;57.65;32.15;;;;;;;8.27;100.00;100701.19;5061022;28;20472;-79
2023/04/07 03:20:01;;;;;;;60.45;31.80;;;;;;;8.25;100.00;100705.72;5066841;28;20052;-79
2023/04/07 03:22:27;;;;;;;58.65;32.92;;;;;;;8.24;100.00;100709.28;5060094;28;20121;-79
2023/04/07 03:24:54;;;;;;;66.70;32.83;;;;;;;8.21;100.00;100706.97;5059051;28;20504;-79
2023/04/07 03:27:22;;;;;;;55.30;29.58;;;;;;;8.19;100.00;100709.69;5067689;28;20062;-78
2023/04/07 03:29:50;;;;;;;52.75;29.67;;;;;;;8.13;100.00;100705.03;5064128;28;20041;-79
2023/04/07 03:32:17;;;;;;;56.75;31.27;;;;;;;8.12;100.00;100699.97;5061596;28;20053;-80
2023/04/07 03:34:44;;;;;;;50.90;29.77;;;;;;;8.10;100.00;100689.69;5063759;28;20057;-79
2023/04/07 03:37:10;;;;;;;49.55;28.70;;;;;;;8.12;100.00;100694.75;5065347;28;20061;-79
2023/04/07 03:39:38;;;;;;;52.78;29.50;;;;;;;8.10;100.00;100697.50;5062269;28;20136;-79
2023/04/07 03:42:04;;;;;;;47.42;28.50;;;;;;;8.11;100.00;100688.72;5056934;28;20045;-80
2023/04/07 03:44:31;;;;;;;51.38;28.65;;;;;;;8.07;100.00;100695.16;5060843;28;20119;-80
2023/04/07 03:47:00;;;;;;;49.53;27.58;;;;;;;8.06;100.00;100692.69;5065175;28;20059;-80
2023/04/07 03:49:27;;;;;;;49.88;30.08;;;;;;;8.12;100.00;100692.97;5065758;28;20049;-80
2023/04/07 03:51:53;;;;;;;55.25;31.63;;;;;;;8.06;100.00;100701.34;5066093;28;20052;-80
2023/04/07 03:54:20;;;;;;;54.45;31.08;;;;;;;8.10;100.00;100705.31;5065594;28;20076;-80
2023/04/07 03:56:46;;;;;;;54.40;29.38;;;;;;;8.11;100.00;100706.13;5065872;28;20076;-79
2023/04/07 03:59:13;;;;;;;54.92;29.50;;;;;;;8.05;100.00;100702.28;5065608;28;20468;-80
2023/04/07 04:01:40;;;;;;;48.88;28.05;;;;;;;8.05;100.00;100706.69;5057390;28;20072;-79
2023/04/07 04:04:08;;;;;;;53.15;30.67;;;;;;;8.05;100.00;100706.69;5064436;28;20053;-79
2023/04/07 04:06:34;;;;;;;51.42;29.50;;;;;;;8.04;100.00;100713.69;5066526;28;20056;-80
2023/04/07 04:09:04;;;;;;;55.65;31.27;;;;;;;8.02;100.00;100713.03;5065278;28;20088;-78
2023/04/07 04:11:31;;;;;;;54.15;30.45;;;;;;;8.02;100.00;100705.19;5050245;28;20492;-80
2023/04/07 04:13:58;;;;;;;58.85;31.52;;;;;;;8.03;100.00;100713.84;5047262;28;20050;-80
2023/04/07 04:16:25;;;;;;;53.63;30.65;;;;;;;7.98;100.00;100712.47;5053213;28;20131;-77
2023/04/07 04:18:51;;;;;;;55.33;31.80;;;;;;;7.98;100.00;100712.47;5056070;28;20053;-78
2023/04/07 04:21:19;;;;;;;57.20;30.60;;;;;;;7.97;100.00;100715.22;5052673;28;20105;-80
2023/04/07 04:23:46;;;;;;;63.38;32.22;;;;;;;8.00;100.00;100714.94;5059003;28;20108;-79
2023/04/07 04:26:12;;;;;;;54.10;30.63;;;;;;;8.02;100.00;100714.81;5058768;28;20083;-79
2023/04/07 04:28:39;;;;;;;56.08;30.30;;;;;;;7.97;100.00;100720.44;5057961;28;20128;-78
2023/04/07 04:31:06;;;;;;;55.25;32.10;;;;;;;7.98;100.00;100727.28;5059406;28;20104;-80
2023/04/07 04:33:32;;;;;;;51.75;29.10;;;;;;;7.93;100.00;100729.47;5058926;28;20053;-76
2023/04/07 04:35:59;;;;;;;48.97;29.17;;;;;;;7.96;100.00;100731.81;5056016;28;20536;-78
2023/04/07 04:38:27;;;;;;;51.72;28.90;;;;;;;7.93;100.00;100742.50;5056310;28;20132;-78
2023/04/07 04:40:53;;;;;;;52.25;28.67;;;;;;;7.93;100.00;100743.31;5049363;28;20061;-79
2023/04/07 04:43:20;;;;;;;51.63;28.65;;;;;;;7.92;100.00;100751.28;5054672;28;20136;-79
2023/04/07 04:45:47;;;;;;;47.75;27.92;;;;;;;7.90;100.00;100751.41;5055330;28;20049;-78
2023/04/07 04:48:14;;;;;;;45.35;25.55;;;;;;;7.90;100.00;100751.41;5053883;28;20085;-79
2023/04/07 04:50:42;;;;;;;44.22;24.85;;;;;;;7.90;100.00;100746.19;5049141;28;20516;-79
2023/04/07 04:53:09;;;;;;;38.40;22.90;;;;;;;7.86;100.00;100749.22;5053696;28;20127;-81
2023/04/07 04:55:39;;;;;;;40.80;22.65;;;;;;;7.79;100.00;100742.88;5048169;28;20048;-79
2023/04/07 04:58:06;;;;;;;41.90;21.80;;;;;;;7.86;100.00;100751.81;5053546;28;20052;-77
2023/04/07 05:00:32;;;;;;;40.75;22.75;;;;;;;7.83;100.00;100750.31;5053255;28;20117;-78
2023/04/07 05:02:59;;;;;;;36.42;21.35;;;;;;;7.93;100.00;100750.31;5054269;28;20127;-79
2023/04/07 05:05:26;;;;;;;34.45;20.40;;;;;;;7.80;100.00;100740.16;5055882;28;20156;-77
2023/04/07 05:07:52;;;;;;;30.65;20.10;;;;;;;7.83;100.00;100749.47;5051883;28;20124;-77
2023/04/07 05:10:19;;;;;;;30.80;19.00;;;;;;;7.88;100.00;100762.94;5050785;28;20045;-76
2023/04/07 05:12:47;;;;;;;33.90;18.27;;;;;;;7.85;100.00;100752.78;5051654;28;20055;-77
2023/04/07 05:15:14;;;;;;;29.10;18.08;;;;;;;7.85;100.00;100764.00;5042026;28;20136;-76
2023/04/07 05:17:41;;;;;;;28.02;17.25;;;;;;;7.82;100.00;100758.25;5051218;28;20048;-77
2023/04/07 05:20:10;;;;;;;31.63;16.88;;;;;;;7.84;100.00;100751.13;5050109;28;20075;-78
2023/04/07 05:22:36;;;;;;;29.65;16.65;;;;;;;7.91;100.00;100762.66;5051135;28;20138;-77
2023/04/07 05:25:04;;;;;;;28.40;16.05;;;;;;;7.82;100.00;100761.69;5042990;28;20059;-77
2023/04/07 05:27:31;;;;;;;35.35;16.95;;;;;;;7.84;100.00;100764.97;5051363;28;20048;-77
2023/04/07 05:29:59;;;;;;;30.45;16.88;;;;;;;7.88;100.00;100768.13;5050906;28;20124;-78
2023/04/07 05:32:28;;;;;;;26.67;16.77;;;;;;;7.81;100.00;100765.25;5052690;28;20049;-77
2023/04/07 05:34:54;;;;;;;30.58;16.70;;;;;;;7.88;100.00;100773.34;5055425;28;20051;-77
2023/04/07 05:37:21;;;;;;;23.88;15.38;;;;;;;7.86;100.00;100772.66;5055816;28;20052;-77
2023/04/07 05:39:48;;;;;;;27.55;15.48;;;;;;;7.89;100.00;100769.78;5046961;28;20399;-77
2023/04/07 05:42:14;;;;;;;29.10;15.80;;;;;;;7.85;100.00;100771.00;5054530;28;20049;-77
2023/04/07 05:44:41;;;;;;;25.42;15.20;;;;;;;7.91;100.00;100767.88;5054346;28;20056;-76
2023/04/07 05:47:10;;;;;;;28.23;15.55;;;;;;;7.85;100.00;100773.63;5046727;28;20434;-77
2023/04/07 05:49:36;;;;;;;23.90;15.18;;;;;;;7.89;100.00;100780.22;5055058;28;20101;-76
2023/04/07 05:52:04;;;;;;;26.77;15.23;;;;;;;7.88;100.00;100786.38;5055784;28;20044;-77
2023/04/07 05:54:31;;;;;;;28.95;15.35;;;;;;;7.84;100.00;100787.59;5055712;28;20056;-77
2023/04/07 05:56:58;;;;;;;20.98;14.60;;;;;;;7.89;100.00;100790.63;5055211;28;20045;-77
2023/04/07 05:59:25;;;;;;;28.50;14.50;;;;;;;7.87;100.00;100789.94;5055049;28;20135;-76
2023/04/07 06:01:51;;;;;;;25.58;14.35;;;;;;;7.95;100.00;100787.47;5055866;28;20048;-76
2023/04/07 06:04:19;;;;;;;21.67;13.80;;;;;;;7.94;100.00;100786.66;5055033;28;20085;-77
2023/04/07 06:06:47;;;;;;;25.13;11.88;;;;;;;7.95;100.00;100793.53;5055623;28;20053;-75
2023/04/07 06:09:13;;;;;;;21.85;12.18;;;;;;;7.91;100.00;100793.91;5056573;28;20580;-77
2023/04/07 06:11:40;;;;;;;17.95;11.52;;;;;;;7.85;100.00;100792.69;5057463;28;20411;-77
2023/04/07 06:14:06;;;;;;;21.00;11.85;;;;;;;7.84;100.00;100800.63;5057371;28;20072;-76
2023/04/07 06:16:33;;;;;;;16.95;10.70;;;;;;;7.89;100.00;100801.06;5057116;28;20045;-76
2023/04/07 06:19:00;;;;;;;18.15;10.43;;;;;;;7.81;100.00;100804.31;5058867;28;20109;-77
2023/04/07 06:21:28;;;;;;;16.35;9.93;;;;;;;7.95;100.00;100816.97;5059180;28;20124;-78
2023/04/07 06:23:54;;;;;;;14.95;9.07;;;;;;;7.88;100.00;100820.25;5060790;28;20514;-77
2023/04/07 06:26:22;;;;;;;15.82;8.95;;;;;;;7.89;100.00;100816.69;5059939;28;20049;-77
2023/04/07 06:28:49;;;;;;;16.35;9.43;;;;;;;7.88;100.00;100822.84;5059566;28;20481;-78
2023/04/07 06:31:15;;;;;;;17.13;9.32;;;;;;;7.84;100.00;100818.88;5054169;28;20053;-76
2023/04/07 06:33:42;;;;;;;15.68;9.15;;;;;;;7.79;100.00;100821.03;5054672;28;20077;-78
2023/04/07 06:36:09;;;;;;;14.73;8.77;;;;;;;7.85;100.00;100828.31;5057696;28;20479;-78
2023/04/07 06:38:37;;;;;;;17.67;9.70;;;;;;;7.91;100.00;100822.59;5058022;28;20049;-78
2023/04/07 06:41:05;;;;;;;15.32;9.43;;;;;;;7.95;100.00;100834.38;5057090;28;20131;-79
2023/04/07 06:43:31;;;;;;;15.57;9.07;;;;;;;7.96;100.00;100830.81;5056192;28;20059;-79
2023/04/07 06:45:58;;;;;;;19.33;9.18;;;;;;;7.88;100.00;100838.47;5057057;28;20140;-79
2023/04/07 06:48:24;;;;;;;18.90;9.65;;;;;;;7.91;100.00;100841.66;5051819;28;20091;-79
2023/04/07 06:50:52;;;;;;;14.95;9.00;;;;;;;7.98;100.00;100847.97;5057728;28;20055;-78
2023/04/07 06:53:18;;;;;;;14.98;9.90;;;;;;;8.08;100.00;100852.34;5048035;28;20132;-79
2023/04/07 06:55:46;;;;;;;22.42;10.25;;;;;;;7.97;100.00;100845.50;5056340;28;20139;-78
2023/04/07 06:58:13;;;;;;;16.65;10.38;;;;;;;8.12;100.00;100844.13;5047942;28;20139;-78
2023/04/07 07:00:39;;;;;;;14.20;9.02;;;;;;;8.13;100.00;100851.00;5057574;28;20048;-79
2023/04/07 07:03:06;;;;;;;18.88;11.05;;;;;;;8.05;100.00;100858.66;5060105;28;20067;-78
2023/04/07 07:05:33;;;;;;;16.98;9.60;;;;;;;8.13;100.00;100855.38;5057570;28;20131;-78
2023/04/07 07:07:59;;;;;;;19.30;10.45;;;;;;;8.15;100.00;100859.50;5046989;28;20136;-79
2023/04/07 07:10:26;;;;;;;20.15;10.88;;;;;;;8.23;100.00;100866.66;5056811;28;20520;-78
2023/04/07 07:12:54;;;;;;;20.05;10.90;;;;;;;8.19;100.00;100866.09;5057694;28;20060;-79
2023/04/07 07:15:21;;;;;;;18.10;11.10;;;;;;;8.10;100.00;100860.88;5058586;28;20489;-79
2023/04/07 07:17:47;;;;;;;18.27;10.95;;;;;;;8.15;100.00;100862.13;5058907;28;20136;-79
2023/04/07 07:20:14;;;;;;;16.83;10.95;;;;;;;8.07;100.00;100861.97;5059425;28;20068;-78
2023/04/07 07:22:41;;;;;;;17.50;11.02;;;;;;;8.23;100.00;100856.22;5048796;28;20049;-77
2023/04/07 07:25:09;;;;;;;18.50;11.38;;;;;;;8.32;100.00;100877.13;5045987;28;20054;-77
2023/04/07 07:27:36;;;;;;;19.40;10.73;;;;;;;8.41;100.00;100870.28;5046062;28;20127;-78
2023/04/07 07:30:05;;;;;;;16.30;10.13;;;;;;;8.44;100.00;100874.41;5055939;28;20131;-78
2023/04/07 07:32:32;;;;;;;18.85;10.25;;;;;;;8.46;100.00;100875.09;5045057;28;20092;-77
2023/04/07 07:34:59;;;;;;;16.23;10.65;;;;;;;8.38;100.00;100872.34;5042943;28;20089;-78
2023/04/07 07:37:25;;;;;;;17.52;11.15;;;;;;;8.45;100.00;100882.09;5055764;28;20103;-77
2023/04/07 07:39:52;;;;;;;16.23;10.60;;;;;;;8.41;100.00;100885.13;5047893;28;20072;-78
2023/04/07 07:42:18;;;;;;;16.70;10.48;;;;;;;8.47;100.00;100876.75;5057924;28;20045;-77
2023/04/07 07:44:45;;;;;;;17.83;11.35;;;;;;;8.54;100.00;100877.81;5047412;28;20045;-79
2023/04/07 07:47:13;;;;;;;20.58;11.18;;;;;;;8.60;100.00;100877.28;5055414;28;20091;-78
2023/04/07 07:49:40;;;;;;;17.10;11.35;;;;;;;8.70;100.00;100885.94;5053547;28;20049;-77
2023/04/07 07:52:07;;;;;;;18.67;11.27;;;;;;;8.61;100.00;100889.34;5045070;28;20414;-77
2023/04/07 07:54:34;;;;;;;19.98;11.23;;;;;;;8.70;100.00;100888.53;5055550;28;20053;-77
2023/04/07 07:57:01;;;;;;;19.75;11.18;;;;;;;8.69;100.00;100889.50;5046876;28;20095;-78
2023/04/07 07:59:28;;;;;;;18.00;10.30;;;;;;;8.75;100.00;100891.56;5047886;28;20547;-79
2023/04/07 08:01:55;;;;;;;21.38;11.20;;;;;;;8.68;100.00;100892.25;5052864;28;20056;-78
2023/04/07 08:04:23;;;;;;;16.02;9.70;;;;;;;8.73;100.00;100888.28;5054659;28;20484;-78
2023/04/07 08:06:50;;;;;;;17.92;9.90;;;;;;;8.66;100.00;100895.00;5046802;28;20049;-78
2023/04/07 08:09:17;;;;;;;17.88;10.35;;;;;;;8.78;100.00;100891.28;5044891;28;20060;-79
2023/04/07 08:11:44;;;;;;;17.58;9.90;;;;;;;8.87;100.00;100906.13;5045491;28;20136;-79
2023/04/07 08:14:11;;;;;;;15.25;10.32;;;;;;;8.84;100.00;100901.19;5056303;28;20110;-78
2023/04/07 08:16:37;;;;;;;17.75;9.98;;;;;;;9.02;100.00;100905.69;5049996;28;20136;-79
2023/04/07 08:19:04;;;;;;;17.63;10.05;;;;;;;8.95;100.00;100908.88;5054240;28;20080;-79
2023/04/07 08:21:32;;;;;;;17.42;10.63;;;;;;;8.97;100.00;100909.56;5045707;28;20293;-79
2023/04/07 08:23:59;;;;;;;17.00;9.48;;;;;;;8.96;100.00;100912.31;5043855;28;20140;-78
2023/04/07 08:26:26;;;;;;;14.55;9.45;;;;;;;9.16;100.00;100913.91;5049166;28;20052;-79
2023/04/07 08:28:54;;;;;;;15.30;9.23;;;;;;;9.11;100.00;100912.69;5048721;28;20053;-79
2023/04/07 08:31:21;;;;;;;18.42;9.88;;;;;;;9.18;100.00;100911.97;5042199;28;20468;-78
2023/04/07 08:33:52;;;;;;;14.77;10.43;;;;;;;9.25;100.00;100912.25;5043180;28;20513;-78
2023/04/07 08:36:20;;;;;;;14.63;9.80;;;;;;;9.28;100.00;100917.19;5046664;28;20041;-78
2023/04/07 08:38:48;;;;;;;19.33;10.23;;;;;;;9.23;100.00;100908.97;5048238;28;20049;-78
2023/04/07 08:41:21;;;;;;;19.27;10.77;;;;;;;9.23;100.00;100928.06;5043842;28;20052;-76
2023/04/07 08:43:49;;;;;;;15.25;10.27;;;;;;;9.42;100.00;100918.56;5044692;28;20092;-78
2023/04/07 08:46:20;;;;;;;15.65;10.15;;;;;;;9.67;100.00;100923.13;5046894;28;20124;-77
2023/04/07 08:48:51;;;;;;;15.55;10.23;;;;;;;9.78;100.00;100924.75;5045580;28;20141;-78
2023/04/07 08:51:26;;;;;;;15.93;9.32;;;;;;;9.80;100.00;100922.81;5043100;28;20075;-77
2023/04/07 08:53:56;;;;;;;16.75;9.05;;;;;;;10.04;100.00;100935.34;5041544;28;20060;-77
2023/04/07 08:56:24;;;;;;;17.30;9.23;;;;;;;9.85;100.00;100916.19;5045874;28;20479;-77
2023/04/07 08:58:52;;;;;;;15.27;8.82;;;;;;;9.89;100.00;100924.56;5044608;28;20057;-77
2023/04/07 09:01:22;;;;;;;14.13;9.43;;;;;;;9.81;100.00;100932.31;5043630;28;20131;-77
2023/04/07 09:03:49;;;;;;;15.55;8.77;;;;;;;9.91;100.00;100935.72;5043412;28;20049;-76
2023/04/07 09:06:16;;;;;;;16.95;9.15;;;;;;;9.70;100.00;100929.88;5047338;28;20048;-76
2023/04/07 09:08:43;;;;;;;14.25;9.10;;;;;;;9.91;100.00;100933.09;5054788;28;20095;-79
2023/04/07 09:11:11;;;;;;;12.57;8.95;;;;;;;9.74;100.00;100926.00;5051862;28;20119;-77
2023/04/07 09:13:38;;;;;;;15.13;9.20;;;;;;;9.77;100.00;100937.00;5055076;28;20117;-80
2023/04/07 09:16:05;;;;;;;18.02;9.85;;;;;;;9.60;100.00;100929.88;5056812;28;20357;-76
2023/04/07 09:18:32;;;;;;;16.60;9.38;;;;;;;9.62;100.00;100935.78;5056434;28;20045;-78
2023/04/07 09:21:01;;;;;;;16.13;10.10;;;;;;;9.48;100.00;100937.06;5054009;28;20525;-79
2023/04/07 09:23:29;;;;;;;17.40;10.18;;;;;;;9.63;100.00;100932.22;5052050;28;20476;-79
2023/04/07 09:25:58;;;;;;;15.38;10.02;;;;;;;9.85;100.00;100941.50;5046552;28;20052;-78
2023/04/07 09:28:39;;;;;;;16.65;9.95;;;;;;;9.89;100.00;100940.25;5051374;28;20093;-76
2023/04/07 09:31:05;;;;;;;16.27;10.23;;;;;;;9.88;100.00;100946.44;5052669;28;20103;-79
2023/04/07 09:33:34;;;;;;;15.85;9.98;;;;;;;9.75;100.00;100951.16;5050745;28;20067;-79
2023/04/07 09:36:00;;;;;;;16.00;10.07;;;;;;;9.49;100.00;100943.13;5058398;28;20053;-81
2023/04/07 09:38:35;;;;;;;17.98;11.68;;;;;;;9.39;100.00;100940.56;5049585;28;20049;-82
2023/04/07 09:41:19;;;;;;;19.38;11.70;;;;;;;9.39;100.00;100944.94;5045059;28;20053;-82
2023/04/07 09:43:48;;;;;;;19.40;12.65;;;;;;;9.19;100.00;100944.97;5051819;28;20056;-82
2023/04/07 09:46:20;;;;;;;20.98;12.93;;;;;;;9.01;100.00;100951.00;5048348;28;20568;-78
2023/04/07 09:48:47;;;;;;;23.38;13.73;;;;;;;9.02;100.00;100957.88;5046909;28;20046;-79
2023/04/07 09:51:15;;;;;;;22.45;13.85;;;;;;;8.92;100.00;100957.91;5054661;28;20064;-79
2023/04/07 09:53:47;;;;;;;24.05;13.82;;;;;;;8.98;100.00;100958.16;5060129;28;20111;-81
2023/04/07 09:56:16;;;;;;;24.17;13.70;;;;;;;8.95;100.00;100966.28;5050914;28;20049;-79
2023/04/07 09:58:44;;;;;;;25.50;15.30;;;;;;;8.95;100.00;100960.25;5049478;28;20051;-80
2023/04/07 10:01:15;;;;;;;25.30;15.93;;;;;;;8.91;100.00;100959.69;5045333;28;20045;-78
2023/04/07 10:03:42;;;;;;;29.45;16.63;;;;;;;8.90;100.00;100973.69;5054260;28;20067;-79
2023/04/07 10:06:09;;;;;;;28.73;16.90;;;;;;;8.99;100.00;100965.03;5051802;28;20088;-78
2023/04/07 10:08:38;;;;;;;26.77;16.48;;;;;;;9.10;100.00;100969.28;5048024;28;20147;-79
2023/04/07 10:13:37;;;;;;;25.10;15.13;;;;;;;9.13;100.00;100965.59;5061619;28;20049;-82
2023/04/07 10:16:05;;;;;;;25.65;15.75;;;;;;;9.23;100.00;100967.22;5059681;28;20322;-82
2023/04/07 10:18:35;;;;;;;28.38;14.68;;;;;;;9.23;100.00;100969.00;5059938;28;20041;-81
2023/04/07 10:21:04;;;;;;;24.27;14.55;;;;;;;9.23;100.00;100972.44;5069978;28;20053;-83
2023/04/07 10:23:48;;;;;;;29.30;15.25;;;;;;;9.18;100.00;100966.81;5066905;28;20076;-83
2023/04/07 10:26:18;;;;;;;26.92;14.00;;;;;;;9.15;100.00;100968.88;5063678;28;20056;-83
2023/04/07 10:28:48;;;;;;;28.35;15.77;;;;;;;9.14;100.00;100967.22;5065301;28;20045;-82
2023/04/07 10:31:16;;;;;;;28.20;16.85;;;;;;;9.25;100.00;100985.38;5061185;28;20056;-79
2023/04/07 10:33:49;;;;;;;26.45;15.75;;;;;;;9.18;100.00;100985.09;5061118;28;20041;-84
2023/04/07 10:36:17;;;;;;;26.05;14.82;;;;;;;9.09;100.00;100987.69;5069469;28;20040;-83
2023/04/07 10:39:22;;;;;;;23.60;14.63;;;;;;;9.34;100.00;100983.72;5070032;28;20057;-83
2023/04/07 10:41:50;;;;;;;28.65;15.35;;;;;;;9.35;100.00;100985.38;5064682;28;20104;-81
2023/04/07 10:44:57;;;;;;;25.20;15.25;;;;;;;9.56;100.00;100989.44;5070758;28;20049;-82
2023/04/07 10:47:23;;;;;;;24.90;15.20;;;;;;;9.59;100.00;100986.53;5070280;28;20117;-81
2023/04/07 10:50:20;;;;;;;28.95;14.52;;;;;;;9.74;100.00;100986.09;5070427;28;20057;-82
2023/04/07 10:52:51;;;;;;;22.33;13.73;;;;;;;9.86;100.00;100980.56;5065110;28;20052;-82
2023/04/07 10:55:36;;;;;;;23.45;14.40;;;;;;;9.55;100.00;100969.50;5068637;28;20057;-84
2023/04/07 10:58:16;;;;;;;24.17;14.38;;;;;;;9.54;100.00;100967.03;5067615;28;20508;-82
2023/04/07 11:01:22;;;;;;;21.45;13.65;;;;;;;9.59;100.00;100991.78;5058322;28;20080;-83
2023/04/07 11:03:55;;;;;;;22.30;12.85;;;;;;;9.52;100.00;100993.28;5062816;28;20478;-82
2023/04/07 11:06:23;;;;;;;25.95;13.20;;;;;;;9.33;100.00;100982.88;5067184;28;20081;-83
2023/04/07 11:08:50;;;;;;;25.92;14.95;;;;;;;9.32;100.00;100991.69;5067737;28;20045;-79
2023/04/07 11:11:34;;;;;;;25.20;14.02;;;;;;;9.39;100.00;100994.56;5068178;28;20045;-82
2023/04/07 11:14:01;;;;;;;25.58;14.38;;;;;;;9.61;100.00;101002.91;5069157;28;20053;-81
2023/04/07 11:16:36;;;;;;;30.33;14.55;;;;;;;9.86;100.00;100998.03;5068764;28;20049;-83
2023/04/07 11:19:03;;;;;;;25.88;14.05;;;;;;;10.01;100.00;100995.78;5069377;28;20048;-81